TimeEDT,TemperatureF,Dew PointF,Humidity,Sea Level PressureIn,VisibilityMPH,Wind Direction,Wind SpeedMPH,Gust SpeedMPH,PrecipitationIn,Events,Conditions,WindDirDegrees,DateUTC
12:52 AM,79.0,69.1,72,29.99,10.0,ENE,11.5,-,N/A,,Overcast,70,2013-08-30 04:52:00
1:52 AM,77.0,70.0,79,29.99,10.0,East,11.5,-,N/A,,Overcast,100,2013-08-30 05:52:00
2:52 AM,75.9,70.0,82,29.99,10.0,East,8.1,-,N/A,,Mostly Cloudy,100,2013-08-30 06:52:00
3:52 AM,75.0,68.0,79,30.01,10.0,East,8.1,-,N/A,,Overcast,80,2013-08-30 07:52:00
4:52 AM,73.9,69.1,85,30.00,10.0,East,6.9,-,N/A,,Overcast,80,2013-08-30 08:52:00
5:52 AM,73.0,68.0,84,30.01,10.0,East,4.6,-,N/A,,Scattered Clouds,90,2013-08-30 09:52:00
6:52 AM,72.0,69.1,91,30.03,10.0,ENE,6.9,-,N/A,,Scattered Clouds,60,2013-08-30 10:52:00
7:52 AM,73.0,69.1,87,30.05,10.0,Variable,6.9,-,N/A,,Mostly Cloudy,0,2013-08-30 11:52:00
8:52 AM,73.0,68.0,84,30.06,10.0,ENE,8.1,-,N/A,,Overcast,70,2013-08-30 12:52:00
8:59 AM,73.4,68.0,83,30.08,10.0,ENE,6.9,-,N/A,,Overcast,70,2013-08-30 12:59:00
9:52 AM,75.9,66.9,74,30.06,10.0,East,8.1,-,N/A,,Mostly Cloudy,90,2013-08-30 13:52:00
10:52 AM,78.1,66.9,68,30.06,10.0,East,4.6,-,N/A,,Overcast,100,2013-08-30 14:52:00
11:52 AM,81.0,64.0,56,30.05,10.0,SSE,5.8,-,N/A,,Mostly Cloudy,150,2013-08-30 15:52:00
12:52 PM,82.9,64.9,54,30.03,10.0,SE,5.8,-,N/A,,Scattered Clouds,140,2013-08-30 16:52:00
1:52 PM,84.9,64.9,51,30.01,10.0,SE,6.9,-,N/A,,Scattered Clouds,140,2013-08-30 17:52:00
2:52 PM,87.1,64.9,48,30.00,10.0,Variable,3.5,-,N/A,,Mostly Cloudy,0,2013-08-30 18:52:00
3:52 PM,86.0,64.9,49,29.97,10.0,SSW,4.6,-,N/A,,Scattered Clouds,210,2013-08-30 19:52:00
4:52 PM,88.0,64.9,46,29.95,10.0,NW,5.8,-,N/A,,Scattered Clouds,320,2013-08-30 20:52:00
5:52 PM,87.1,64.9,48,29.94,10.0,Calm,Calm,-,N/A,,Scattered Clouds,0,2013-08-30 21:52:00
6:52 PM,84.9,63.0,48,29.94,10.0,South,8.1,-,N/A,,Scattered Clouds,170,2013-08-30 22:52:00
7:52 PM,81.0,64.0,56,29.95,10.0,South,6.9,-,N/A,,Scattered Clouds,170,2013-08-30 23:52:00
8:52 PM,79.0,64.9,62,29.97,10.0,SSE,6.9,-,N/A,,Partly Cloudy,160,2013-08-31 00:52:00
9:52 PM,77.0,66.0,69,29.97,10.0,SSE,5.8,-,N/A,,Scattered Clouds,160,2013-08-31 01:52:00
10:52 PM,75.9,66.0,71,29.97,10.0,South,10.4,-,N/A,,Partly Cloudy,170,2013-08-31 02:52:00
11:52 PM,73.0,66.0,79,29.97,10.0,South,5.8,-,N/A,,Clear,180,2013-08-31 03:52:00